createdAt,value
2022-10-19T00:01:33.397Z,7.38
2022-10-19T00:04:02.492Z,7.50
2022-10-19T00:06:34.011Z,7.51
2022-10-19T00:09:05.165Z,7.50
2022-10-19T00:11:33.134Z,7.46
2022-10-19T00:14:00.718Z,7.45
2022-10-19T00:16:30.412Z,7.47
2022-10-19T00:18:58.026Z,7.41
2022-10-19T00:21:24.933Z,7.50
2022-10-19T00:23:51.350Z,7.48
2022-10-19T00:26:18.165Z,7.53
2022-10-19T00:28:44.867Z,7.48
2022-10-19T00:31:17.406Z,7.51
2022-10-19T00:33:46.753Z,7.54
2022-10-19T00:36:19.280Z,7.53
2022-10-19T00:38:45.672Z,7.57
2022-10-19T00:41:12.130Z,7.52
2022-10-19T00:44:13.598Z,7.55
2022-10-19T00:46:43.313Z,7.56
2022-10-19T00:49:15.640Z,7.56
2022-10-19T00:51:45.005Z,7.58
2022-10-19T00:54:12.425Z,7.43
2022-10-19T00:56:42.644Z,7.49
2022-10-19T00:59:10.424Z,7.69
2022-10-19T01:01:37.342Z,7.70
2022-10-19T01:04:04.617Z,7.77
2022-10-19T01:06:32.053Z,7.82
2022-10-19T01:08:58.534Z,7.82
2022-10-19T01:11:39.687Z,7.80
2022-10-19T01:14:24.587Z,7.88
2022-10-19T01:17:11.048Z,7.92
2022-10-19T01:20:08.268Z,7.86
2022-10-19T01:22:56.349Z,7.95
2022-10-19T01:25:35.097Z,8.01
2022-10-19T01:28:20.475Z,8.02
2022-10-19T01:30:58.597Z,8.03
2022-10-19T01:33:43.282Z,8.07
2022-10-19T01:36:28.786Z,8.13
2022-10-19T01:39:04.107Z,8.13
2022-10-19T01:41:41.397Z,8.30
2022-10-19T01:44:17.308Z,8.52
2022-10-19T01:46:56.752Z,8.51
2022-10-19T01:49:35.167Z,8.36
2022-10-19T01:52:08.442Z,8.62
2022-10-19T01:54:42.582Z,8.58
2022-10-19T01:57:12.413Z,8.58
2022-10-19T01:59:39.569Z,8.49
2022-10-19T02:02:08.845Z,8.48
2022-10-19T02:04:36.821Z,8.33
2022-10-19T02:07:06.506Z,8.28
2022-10-19T02:09:33.169Z,8.30
2022-10-19T02:12:04.889Z,8.18
2022-10-19T02:14:37.554Z,8.22
2022-10-19T02:17:13.971Z,8.08
2022-10-19T02:19:41.316Z,8.09
2022-10-19T02:22:08.691Z,8.06
2022-10-19T02:24:35.132Z,7.93
2022-10-19T02:27:04.871Z,7.92
2022-10-19T02:29:33.127Z,7.80
2022-10-19T02:32:00.131Z,7.80
2022-10-19T02:34:27.054Z,7.75
2022-10-19T02:36:54.240Z,7.67
2022-10-19T02:39:21.378Z,7.63
2022-10-19T02:42:04.160Z,7.57
2022-10-19T02:44:56.864Z,7.55
2022-10-19T02:47:28.270Z,7.53
2022-10-19T02:49:54.908Z,7.26
2022-10-19T02:52:21.435Z,7.39
2022-10-19T02:54:47.926Z,7.12
2022-10-19T02:57:15.601Z,7.27
2022-10-19T02:59:42.006Z,7.24
2022-10-19T03:02:08.550Z,7.23
2022-10-19T03:04:35.031Z,7.21
2022-10-19T03:07:01.695Z,7.12
2022-10-19T03:09:28.145Z,7.07
2022-10-19T03:11:57.323Z,7.12
2022-10-19T03:14:23.803Z,7.11
2022-10-19T03:16:50.238Z,7.10
2022-10-19T03:19:16.674Z,6.99
2022-10-19T03:21:43.095Z,6.96
2022-10-19T03:24:10.056Z,7.01
2022-10-19T03:26:36.592Z,6.89
2022-10-19T03:29:03.349Z,6.88
2022-10-19T03:31:29.879Z,6.86
2022-10-19T03:33:56.452Z,6.80
2022-10-19T03:36:24.691Z,6.71
2022-10-19T03:38:56.080Z,6.80
2022-10-19T03:41:24.349Z,6.79
2022-10-19T03:43:51.166Z,6.70
2022-10-19T03:46:17.674Z,6.70
2022-10-19T03:48:44.491Z,6.63
2022-10-19T03:51:16.759Z,6.60
2022-10-19T03:53:43.701Z,6.51
2022-10-19T03:56:15.464Z,6.58
2022-10-19T03:58:43.537Z,6.39
2022-10-19T04:01:16.498Z,6.55
2022-10-19T04:03:43.635Z,6.52
2022-10-19T04:06:15.840Z,6.48
2022-10-19T04:08:48.074Z,6.54
2022-10-19T04:11:16.422Z,6.48
2022-10-19T04:13:42.762Z,6.47
2022-10-19T04:16:13.301Z,6.46
2022-10-19T04:18:39.757Z,6.40
2022-10-19T04:21:06.817Z,6.43
2022-10-19T04:23:35.839Z,6.43
2022-10-19T04:26:04.290Z,6.44
2022-10-19T04:28:30.619Z,6.43
2022-10-19T04:30:57.176Z,6.34
2022-10-19T04:33:23.784Z,6.39
2022-10-19T04:35:50.226Z,6.37
2022-10-19T04:38:16.714Z,6.28
2022-10-19T04:40:43.218Z,6.22
2022-10-19T04:43:09.624Z,6.25
2022-10-19T04:45:36.136Z,6.25
2022-10-19T04:48:02.497Z,6.18
2022-10-19T04:50:28.988Z,6.18
2022-10-19T04:52:55.464Z,6.21
2022-10-19T04:55:21.967Z,6.23
2022-10-19T04:57:48.599Z,6.14
2022-10-19T05:00:15.588Z,6.17
2022-10-19T05:02:46.114Z,6.22
2022-10-19T05:05:14.208Z,6.13
2022-10-19T05:07:40.832Z,6.27
2022-10-19T05:10:10.967Z,6.26
2022-10-19T05:12:37.482Z,6.18
2022-10-19T05:15:04.321Z,6.28
2022-10-19T05:17:32.282Z,6.27
2022-10-19T05:19:58.943Z,6.12
2022-10-19T05:22:25.495Z,6.28
2022-10-19T05:24:55.851Z,6.31
2022-10-19T05:27:24.787Z,6.34
2022-10-19T05:29:51.283Z,6.36
2022-10-19T05:32:17.753Z,6.36
2022-10-19T05:34:44.285Z,6.33
2022-10-19T05:37:10.752Z,6.12
2022-10-19T05:39:37.229Z,6.31
2022-10-19T05:42:03.620Z,6.33
2022-10-19T05:44:30.252Z,6.30
2022-10-19T05:46:56.753Z,6.31
2022-10-19T05:49:23.303Z,6.16
2022-10-19T05:51:50.244Z,6.25
2022-10-19T05:54:16.712Z,6.13
2022-10-19T05:56:43.920Z,6.22
2022-10-19T05:59:15.382Z,6.20
2022-10-19T06:01:41.850Z,6.23
2022-10-19T06:04:08.434Z,6.16
2022-10-19T06:06:34.893Z,6.15
2022-10-19T06:09:01.527Z,6.21
2022-10-19T06:11:35.117Z,6.17
2022-10-19T06:14:04.041Z,6.13
2022-10-19T06:16:31.711Z,6.12
2022-10-19T06:18:59.099Z,6.07
2022-10-19T06:21:28.536Z,6.09
2022-10-19T06:24:01.512Z,6.00
2022-10-19T06:26:30.325Z,6.06
2022-10-19T06:29:00.275Z,6.06
2022-10-19T06:31:31.739Z,6.04
2022-10-19T06:33:58.620Z,5.95
2022-10-19T06:36:27.844Z,6.04
2022-10-19T06:38:55.881Z,5.97
2022-10-19T06:41:23.002Z,5.94
2022-10-19T06:43:51.100Z,6.16
2022-10-19T06:46:20.485Z,6.20
2022-10-19T06:48:58.106Z,6.25
2022-10-19T06:51:26.178Z,6.44
2022-10-19T06:53:56.618Z,6.47
2022-10-19T06:56:24.651Z,6.57
2022-10-19T06:58:51.712Z,6.76
2022-10-19T07:01:18.467Z,6.92
2022-10-19T07:03:45.108Z,7.12
2022-10-19T07:06:12.940Z,7.22
2022-10-19T07:08:41.564Z,7.46
2022-10-19T07:11:10.891Z,7.62
2022-10-19T07:13:38.071Z,7.58
2022-10-19T07:16:08.007Z,7.55
2022-10-19T07:18:36.293Z,7.77
2022-10-19T07:21:05.926Z,7.83
2022-10-19T07:23:34.440Z,7.87
2022-10-19T07:26:23.172Z,8.05
2022-10-19T07:28:49.779Z,8.07
2022-10-19T07:31:18.396Z,8.12
2022-10-19T07:33:45.019Z,8.16
2022-10-19T07:36:13.604Z,8.19
2022-10-19T07:38:40.704Z,8.27
2022-10-19T07:41:13.081Z,8.41
2022-10-19T07:43:40.611Z,8.47
2022-10-19T07:46:09.642Z,8.49
2022-10-19T07:48:36.117Z,8.65
2022-10-19T07:51:05.720Z,8.78
2022-10-19T07:53:32.752Z,8.88
2022-10-19T07:56:11.086Z,8.85
2022-10-19T07:58:37.908Z,8.94
2022-10-19T08:01:12.582Z,9.10
2022-10-19T08:06:26.477Z,9.09
2022-10-19T08:08:54.100Z,9.20
2022-10-19T08:11:25.244Z,9.24
2022-10-19T08:13:52.325Z,9.24
2022-10-19T08:16:37.279Z,9.15
2022-10-19T08:19:07.121Z,9.40
2022-10-19T08:21:34.726Z,9.42
2022-10-19T08:24:01.195Z,9.43
2022-10-19T08:26:32.312Z,9.53
2022-10-19T08:29:00.551Z,9.62
2022-10-19T08:31:26.886Z,9.61
2022-10-19T08:33:53.440Z,9.57
2022-10-19T08:36:21.180Z,9.73
2022-10-19T08:38:48.860Z,9.74
2022-10-19T08:41:23.125Z,9.69
2022-10-19T08:44:04.022Z,9.72
2022-10-19T08:47:08.730Z,9.85
2022-10-19T08:49:36.359Z,9.91
2022-10-19T08:52:17.694Z,9.81
2022-10-19T08:54:51.049Z,10.06
2022-10-19T08:57:24.297Z,10.09
2022-10-19T09:00:27.776Z,10.25
2022-10-19T09:03:31.874Z,10.34
2022-10-19T09:06:29.798Z,10.34
2022-10-19T09:08:57.697Z,10.30
2022-10-19T09:11:35.458Z,10.20
2022-10-19T09:14:17.698Z,10.44
2022-10-19T09:16:44.253Z,10.53
2022-10-19T09:19:21.971Z,10.60
2022-10-19T09:22:15.908Z,10.57
2022-10-19T09:24:49.158Z,10.60
2022-10-19T09:27:39.566Z,10.62
2022-10-19T09:30:16.941Z,10.70
2022-10-19T09:32:43.494Z,10.84
2022-10-19T09:35:34.099Z,10.59
2022-10-19T09:38:00.754Z,10.87
2022-10-19T09:40:29.808Z,10.88
2022-10-19T09:42:58.180Z,10.91
2022-10-19T09:45:57.297Z,10.98
2022-10-19T09:48:30.858Z,10.89
2022-10-19T09:51:02.476Z,11.13
2022-10-19T09:53:30.093Z,11.06
2022-10-19T09:56:04.883Z,11.03
2022-10-19T09:58:33.101Z,11.00
2022-10-19T10:01:01.740Z,11.02
2022-10-19T10:03:35.960Z,11.02
2022-10-19T10:06:06.018Z,11.08
2022-10-19T10:08:45.162Z,11.06
2022-10-19T10:11:24.094Z,11.11
2022-10-19T10:13:55.891Z,11.11
2022-10-19T10:16:29.220Z,11.14
2022-10-19T10:19:02.637Z,11.15
2022-10-19T10:21:36.335Z,11.20
2022-10-19T10:24:16.754Z,11.17
2022-10-19T10:26:49.119Z,11.18
2022-10-19T10:29:39.065Z,11.26
2022-10-19T10:32:11.358Z,11.28
2022-10-19T10:34:50.634Z,11.30
2022-10-19T10:37:23.208Z,11.33
2022-10-19T10:39:57.708Z,11.38
2022-10-19T10:42:32.820Z,11.43
2022-10-19T10:44:59.848Z,11.48
2022-10-19T10:47:28.166Z,11.47
2022-10-19T10:49:58.903Z,11.51
2022-10-19T10:52:28.220Z,11.53
2022-10-19T10:55:09.848Z,11.58
2022-10-19T10:57:46.411Z,11.55
2022-10-19T11:00:16.606Z,11.54
2022-10-19T11:03:01.168Z,11.59
2022-10-19T11:05:40.640Z,11.59
2022-10-19T11:08:31.880Z,11.68
2022-10-19T11:11:30.395Z,11.75
2022-10-19T11:13:59.863Z,11.79
2022-10-19T11:16:39.815Z,11.87
2022-10-19T11:19:11.566Z,11.87
2022-10-19T11:21:44.305Z,11.93
2022-10-19T11:24:32.039Z,11.95
2022-10-19T11:27:19.933Z,11.98
2022-10-19T11:29:57.467Z,12.03
2022-10-19T11:32:56.177Z,12.12
2022-10-19T11:35:39.440Z,12.16
2022-10-19T11:38:30.403Z,12.08
2022-10-19T11:41:18.330Z,12.16
2022-10-19T11:44:09.668Z,12.20
2022-10-19T11:46:55.379Z,12.22
2022-10-19T11:49:49.375Z,12.37
2022-10-19T11:52:38.983Z,12.38
2022-10-19T11:55:30.640Z,12.30
2022-10-19T11:58:35.495Z,12.31
2022-10-19T12:01:20.664Z,12.29
2022-10-19T12:04:23.126Z,12.30
2022-10-19T12:06:59.852Z,12.32
2022-10-19T12:09:39.268Z,12.30
2022-10-19T12:12:18.734Z,12.34
2022-10-19T12:14:50.835Z,12.40
2022-10-19T12:17:34.184Z,12.30
2022-10-19T12:20:07.115Z,12.32
2022-10-19T12:22:34.436Z,12.33
2022-10-19T12:25:01.867Z,12.43
2022-10-19T12:27:34.273Z,12.38
2022-10-19T12:30:14.922Z,12.42
2022-10-19T12:33:08.805Z,12.23
2022-10-19T12:35:45.652Z,12.48
2022-10-19T12:39:00.029Z,12.46
2022-10-19T12:41:39.019Z,12.42
2022-10-19T12:44:21.243Z,12.46
2022-10-19T12:46:56.452Z,12.42
2022-10-19T12:49:31.064Z,12.47
2022-10-19T12:51:59.604Z,12.30
2022-10-19T12:54:28.937Z,12.42
2022-10-19T12:56:57.412Z,12.52
2022-10-19T12:59:25.534Z,12.46
2022-10-19T13:01:52.371Z,12.50
2022-10-19T13:04:23.266Z,12.63
2022-10-19T13:06:58.510Z,12.60
2022-10-19T13:09:35.347Z,12.55
2022-10-19T13:12:17.660Z,12.60
2022-10-19T13:14:50.516Z,12.61
2022-10-19T13:17:40.608Z,12.68
2022-10-19T13:20:16.129Z,12.66
2022-10-19T13:23:11.878Z,12.70
2022-10-19T13:25:39.234Z,12.69
2022-10-19T13:28:26.763Z,12.72
2022-10-19T13:30:54.604Z,12.67
2022-10-19T13:33:25.560Z,12.76
2022-10-19T13:36:04.171Z,12.80
2022-10-19T13:38:31.584Z,12.79
2022-10-19T13:41:15.458Z,12.84
2022-10-19T13:44:03.870Z,12.83
2022-10-19T13:46:30.237Z,12.83
2022-10-19T13:49:27.743Z,12.84
2022-10-19T13:52:09.023Z,12.76
2022-10-19T13:54:57.287Z,12.76
2022-10-19T13:57:54.232Z,12.86
2022-10-19T14:00:23.753Z,12.83
2022-10-19T14:03:00.791Z,12.83
2022-10-19T14:05:53.616Z,12.83
2022-10-19T14:08:30.259Z,12.87
2022-10-19T14:11:06.139Z,12.90
2022-10-19T14:13:32.747Z,12.86
2022-10-19T14:16:03.139Z,12.83
2022-10-19T14:18:36.003Z,12.85
2022-10-19T14:21:06.013Z,12.84
2022-10-19T14:23:35.465Z,12.89
2022-10-19T14:26:07.327Z,12.92
2022-10-19T14:28:34.508Z,12.87
2022-10-19T14:31:04.565Z,12.92
2022-10-19T14:33:39.436Z,12.87
2022-10-19T14:36:08.067Z,12.86
2022-10-19T14:38:38.605Z,12.98
2022-10-19T14:41:06.760Z,13.01
2022-10-19T14:43:34.324Z,13.09
2022-10-19T14:46:06.514Z,13.06
2022-10-19T14:48:38.952Z,12.98
2022-10-19T14:51:14.878Z,12.98
2022-10-19T14:53:49.767Z,12.87
2022-10-19T14:56:46.927Z,12.92
2022-10-19T14:59:27.200Z,13.07
2022-10-19T15:01:55.564Z,13.02
2022-10-19T15:04:32.647Z,12.99
2022-10-19T15:07:03.035Z,12.91
2022-10-19T15:09:37.471Z,12.90
2022-10-19T15:12:16.991Z,12.88
2022-10-19T15:14:44.548Z,12.86
2022-10-19T15:17:29.479Z,12.85
2022-10-19T15:20:01.328Z,12.84
2022-10-19T15:22:30.966Z,12.72
2022-10-19T15:25:06.524Z,12.65
2022-10-19T15:27:38.916Z,12.73
2022-10-19T15:30:31.514Z,12.68
2022-10-19T15:33:09.493Z,12.63
2022-10-19T15:35:39.041Z,12.56
2022-10-19T15:38:21.893Z,12.56
2022-10-19T15:40:49.252Z,12.50
2022-10-19T15:43:31.842Z,12.49
2022-10-19T15:46:01.422Z,12.45
2022-10-19T15:48:41.499Z,12.40
2022-10-19T15:51:33.064Z,12.45
2022-10-19T15:54:05.396Z,12.37
2022-10-19T15:56:34.901Z,12.32
2022-10-19T15:59:03.748Z,12.26
2022-10-19T16:01:32.345Z,12.23
2022-10-19T16:03:59.713Z,12.13
2022-10-19T16:06:28.859Z,12.04
2022-10-19T16:08:55.688Z,12.07
2022-10-19T16:11:23.286Z,12.01
2022-10-19T16:13:50.146Z,12.03
2022-10-19T16:16:28.997Z,12.07
2022-10-19T16:18:56.485Z,11.94
2022-10-19T16:21:27.763Z,11.88
2022-10-19T16:23:54.196Z,11.89
2022-10-19T16:26:21.281Z,11.80
2022-10-19T16:28:48.716Z,11.68
2022-10-19T16:31:16.158Z,11.55
2022-10-19T16:33:42.542Z,11.50
2022-10-19T16:36:09.127Z,11.50
2022-10-19T16:38:36.496Z,11.38
2022-10-19T16:41:05.652Z,11.49
2022-10-19T16:43:32.180Z,11.41
2022-10-19T16:45:58.663Z,11.40
2022-10-19T16:48:25.535Z,11.39
2022-10-19T16:51:07.321Z,11.35
2022-10-19T16:53:35.164Z,11.32
2022-10-19T16:56:10.997Z,11.39
2022-10-19T16:58:38.198Z,11.38
2022-10-19T17:01:23.028Z,11.35
2022-10-19T17:03:50.001Z,11.27
2022-10-19T17:06:17.254Z,11.17
2022-10-19T17:09:14.771Z,11.22
2022-10-19T17:11:34.086Z,11.22
2022-10-19T17:14:04.107Z,11.14
2022-10-19T17:16:32.883Z,11.10
2022-10-19T17:19:00.843Z,11.08
2022-10-19T17:21:30.324Z,11.13
2022-10-19T17:24:02.256Z,10.98
2022-10-19T17:26:35.143Z,11.05
2022-10-19T17:29:02.050Z,11.00
2022-10-19T17:31:29.366Z,11.02
2022-10-19T17:33:56.453Z,10.94
2022-10-19T17:36:26.290Z,10.97
2022-10-19T17:38:57.657Z,10.90
2022-10-19T17:41:24.907Z,10.85
2022-10-19T17:43:52.104Z,10.93
2022-10-19T17:46:22.989Z,10.90
2022-10-19T17:48:49.857Z,10.88
2022-10-19T17:51:35.718Z,10.88
2022-10-19T17:54:05.140Z,10.84
2022-10-19T17:56:31.737Z,10.86
2022-10-19T17:58:58.503Z,10.79
2022-10-19T18:01:26.023Z,10.85
2022-10-19T18:03:52.980Z,10.88
2022-10-19T18:06:24.672Z,10.85
2022-10-19T18:08:54.012Z,10.78
2022-10-19T18:11:29.402Z,10.80
2022-10-19T18:13:58.309Z,10.81
2022-10-19T18:16:27.419Z,10.63
2022-10-19T18:18:56.760Z,10.80
2022-10-19T18:21:26.880Z,10.82
2022-10-19T18:23:56.072Z,10.78
2022-10-19T18:26:29.769Z,10.70
2022-10-19T18:28:57.218Z,10.73
2022-10-19T18:31:29.140Z,10.71
2022-10-19T18:33:58.649Z,10.68
2022-10-19T18:36:25.160Z,10.48
2022-10-19T18:38:53.112Z,10.66
2022-10-19T18:41:20.259Z,10.63
2022-10-19T18:43:52.316Z,10.59
2022-10-19T18:46:21.180Z,10.52
2022-10-19T18:48:48.107Z,10.34
2022-10-19T18:51:17.442Z,10.51
2022-10-19T18:53:44.865Z,10.48
2022-10-19T18:56:12.922Z,10.47
2022-10-19T18:58:39.567Z,10.52
2022-10-19T19:01:24.455Z,10.54
2022-10-19T19:03:53.764Z,10.41
2022-10-19T19:06:22.239Z,10.41
2022-10-19T19:08:49.291Z,10.47
2022-10-19T19:11:37.459Z,10.40
2022-10-19T19:14:16.296Z,10.38
2022-10-19T19:16:44.643Z,10.16
2022-10-19T19:19:13.666Z,10.26
2022-10-19T19:21:43.673Z,10.24
2022-10-19T19:24:12.637Z,10.21
2022-10-19T19:26:41.568Z,10.02
2022-10-19T19:29:08.227Z,10.12
2022-10-19T19:31:34.883Z,10.07
2022-10-19T19:34:02.443Z,10.04
2022-10-19T19:36:28.953Z,9.99
2022-10-19T19:38:57.195Z,9.90
2022-10-19T19:41:23.595Z,9.88
2022-10-19T19:43:50.259Z,9.92
2022-10-19T19:46:19.268Z,9.89
2022-10-19T19:48:48.051Z,9.87
2022-10-19T19:51:19.086Z,9.89
2022-10-19T19:53:47.195Z,9.91
2022-10-19T19:56:16.818Z,9.86
2022-10-19T19:58:44.807Z,9.87
2022-10-19T20:01:17.811Z,9.89
2022-10-19T20:03:45.972Z,9.88
2022-10-19T20:06:13.426Z,9.81
2022-10-19T20:08:40.012Z,9.65
2022-10-19T20:11:12.335Z,9.82
2022-10-19T20:13:39.307Z,9.81
2022-10-19T20:16:12.596Z,9.80
2022-10-19T20:18:44.714Z,9.78
2022-10-19T20:21:11.360Z,9.74
2022-10-19T20:23:38.565Z,9.73
2022-10-19T20:26:05.316Z,9.71
2022-10-19T20:28:33.181Z,9.65
2022-10-19T20:31:01.801Z,9.74
2022-10-19T20:33:30.085Z,9.52
2022-10-19T20:35:56.416Z,9.71
2022-10-19T20:38:23.015Z,9.56
2022-10-19T20:40:49.767Z,9.60
2022-10-19T20:43:17.511Z,9.58
2022-10-19T20:45:43.974Z,9.55
2022-10-19T20:48:10.352Z,9.42
2022-10-19T20:50:39.057Z,9.44
2022-10-19T20:53:05.433Z,9.53
2022-10-19T20:55:33.410Z,9.48
2022-10-19T20:57:59.803Z,9.46
2022-10-19T21:00:26.209Z,9.44
2022-10-19T21:02:53.527Z,9.36
2022-10-19T21:05:20.007Z,9.35
2022-10-19T21:07:46.415Z,9.33
2022-10-19T21:10:12.811Z,9.42
2022-10-19T21:12:39.224Z,9.37
2022-10-19T21:15:06.046Z,9.34
2022-10-19T21:17:32.618Z,9.36
2022-10-19T21:20:01.505Z,9.35
2022-10-19T21:22:27.978Z,9.38
2022-10-19T21:24:54.373Z,9.29
2022-10-19T21:27:21.081Z,9.31
2022-10-19T21:29:47.457Z,9.29
2022-10-19T21:32:13.883Z,9.26
2022-10-19T21:34:40.257Z,9.20
2022-10-19T21:37:06.742Z,9.15
2022-10-19T21:39:33.202Z,9.19
2022-10-19T21:41:59.583Z,9.11
2022-10-19T21:44:26.126Z,9.03
2022-10-19T21:46:53.001Z,9.11
2022-10-19T21:49:21.913Z,9.08
2022-10-19T21:51:54.267Z,9.12
2022-10-19T21:54:29.064Z,9.07
2022-10-19T21:56:57.633Z,9.02
2022-10-19T21:59:25.063Z,8.94
2022-10-19T22:01:51.916Z,8.90
2022-10-19T22:04:18.839Z,8.93
2022-10-19T22:06:45.441Z,8.84
2022-10-19T22:09:17.967Z,8.78
2022-10-19T22:11:44.998Z,8.74
2022-10-19T22:14:13.294Z,8.78
2022-10-19T22:16:40.181Z,8.77
2022-10-19T22:19:06.919Z,8.70
2022-10-19T22:21:34.495Z,8.67
2022-10-19T22:24:04.885Z,8.61
2022-10-19T22:26:37.920Z,8.64
2022-10-19T22:29:05.871Z,8.61
2022-10-19T22:31:33.742Z,8.60
2022-10-19T22:34:01.754Z,8.69
2022-10-19T22:36:28.482Z,8.72
2022-10-19T22:38:55.173Z,8.70
2022-10-19T22:41:21.711Z,8.64
2022-10-19T22:43:48.106Z,8.56
2022-10-19T22:46:14.610Z,8.56
2022-10-19T22:48:40.974Z,8.52
2022-10-19T22:51:09.754Z,8.60
2022-10-19T22:53:36.162Z,8.51
2022-10-19T22:56:02.825Z,8.57
2022-10-19T22:58:29.287Z,8.64
2022-10-19T23:01:04.418Z,8.48
2022-10-19T23:03:30.932Z,8.55
2022-10-19T23:05:57.430Z,8.55
2022-10-19T23:08:24.603Z,8.56
2022-10-19T23:10:51.142Z,8.51
2022-10-19T23:13:17.608Z,8.53
2022-10-19T23:15:45.012Z,8.58
2022-10-19T23:18:15.051Z,8.54
2022-10-19T23:20:41.512Z,8.46
2022-10-19T23:23:08.746Z,8.49
2022-10-19T23:25:35.144Z,8.51
2022-10-19T23:28:01.561Z,8.51
2022-10-19T23:30:28.016Z,8.49
2022-10-19T23:32:55.934Z,8.38
2022-10-19T23:35:22.429Z,8.37
2022-10-19T23:37:49.091Z,8.46
2022-10-19T23:40:15.602Z,8.45
2022-10-19T23:42:42.247Z,8.40
2022-10-19T23:45:08.980Z,8.51
2022-10-19T23:47:35.563Z,8.47
2022-10-19T23:50:02.177Z,8.41
2022-10-19T23:52:28.609Z,8.46
2022-10-19T23:54:55.023Z,8.46
2022-10-19T23:57:21.420Z,8.50
2022-10-19T23:59:50.187Z,8.47
